createdAt,value
2023-02-11T00:02:40.277Z,30.30
2023-02-11T00:05:24.294Z,27.07
2023-02-11T00:08:08.465Z,33.73
2023-02-11T00:10:55.185Z,31.03
2023-02-11T00:13:39.022Z,30.30
2023-02-11T00:16:23.035Z,28.67
2023-02-11T00:19:07.487Z,27.57
2023-02-11T00:21:51.241Z,31.43
2023-02-11T00:24:35.045Z,27.03
2023-02-11T00:27:20.564Z,26.00
2023-02-11T00:30:05.425Z,25.63
2023-02-11T00:32:49.295Z,28.00
2023-02-11T00:35:33.341Z,27.40
2023-02-11T00:38:17.369Z,31.70
2023-02-11T00:41:01.291Z,25.27
2023-02-11T00:43:47.111Z,27.03
2023-02-11T00:46:31.104Z,26.87
2023-02-11T00:49:15.425Z,28.87
2023-02-11T00:51:59.920Z,32.13
2023-02-11T00:54:44.002Z,25.53
2023-02-11T00:57:28.004Z,28.53
2023-02-11T01:00:15.698Z,26.50
2023-02-11T01:02:59.523Z,26.00
2023-02-11T01:05:43.240Z,26.03
2023-02-11T01:08:27.514Z,28.40
2023-02-11T01:11:15.610Z,25.63
2023-02-11T01:14:02.100Z,29.13
2023-02-11T01:16:47.248Z,24.50
2023-02-11T01:19:31.377Z,23.70
2023-02-11T01:22:15.245Z,24.37
2023-02-11T01:24:59.083Z,24.27
2023-02-11T01:27:42.960Z,26.23
2023-02-11T01:30:26.851Z,21.67
2023-02-11T01:33:12.209Z,23.70
2023-02-11T01:35:55.989Z,26.20
2023-02-11T01:38:41.320Z,24.60
2023-02-11T01:41:25.294Z,26.23
2023-02-11T01:44:27.330Z,24.03
2023-02-11T01:47:11.347Z,26.97
2023-02-11T01:50:00.495Z,24.67
2023-02-11T01:52:48.136Z,23.10
2023-02-11T01:55:50.628Z,25.00
2023-02-11T01:58:39.434Z,27.40
2023-02-11T02:01:26.905Z,24.63
2023-02-11T02:04:12.542Z,30.10
2023-02-11T02:07:03.774Z,22.63
2023-02-11T02:09:53.891Z,25.13
2023-02-11T02:12:37.669Z,23.83
2023-02-11T02:15:27.661Z,22.17
2023-02-11T02:18:31.843Z,26.10
2023-02-11T02:21:36.954Z,20.43
2023-02-11T02:24:39.878Z,24.20
2023-02-11T02:27:43.488Z,31.40
2023-02-11T02:30:58.052Z,39.50
2023-02-11T02:33:55.587Z,36.90
2023-02-11T02:36:49.406Z,27.40
2023-02-11T02:39:36.952Z,38.90
2023-02-11T02:42:22.600Z,27.33
2023-02-11T02:45:08.355Z,31.53
2023-02-11T02:47:53.849Z,26.70
2023-02-11T02:50:39.488Z,29.27
2023-02-11T02:53:33.335Z,24.17
2023-02-11T02:56:27.212Z,25.63
2023-02-11T02:59:36.381Z,37.80
2023-02-11T03:02:28.060Z,25.13
2023-02-11T03:05:18.999Z,32.87
2023-02-11T03:08:09.332Z,33.80
2023-02-11T03:10:55.674Z,31.47
2023-02-11T03:13:41.144Z,27.80
2023-02-11T03:16:29.436Z,36.83
2023-02-11T03:19:17.167Z,27.40
2023-02-11T03:22:03.843Z,25.47
2023-02-11T03:24:49.967Z,24.63
2023-02-11T03:27:40.827Z,28.80
2023-02-11T03:30:29.822Z,31.47
2023-02-11T03:33:19.031Z,23.50
2023-02-11T03:36:08.117Z,25.70
2023-02-11T03:38:57.541Z,26.23
2023-02-11T03:41:44.703Z,31.13
2023-02-11T03:44:32.753Z,27.03
2023-02-11T03:47:21.422Z,25.60
2023-02-11T03:50:07.609Z,24.20
2023-02-11T03:52:52.282Z,26.23
2023-02-11T03:55:41.093Z,24.90
2023-02-11T03:58:26.623Z,23.83
2023-02-11T04:01:10.967Z,26.13
2023-02-11T04:03:54.992Z,26.43
2023-02-11T04:06:39.000Z,20.63
2023-02-11T04:09:22.843Z,29.23
2023-02-11T04:12:06.911Z,41.87
2023-02-11T04:14:52.191Z,38.07
2023-02-11T04:17:36.074Z,23.33
2023-02-11T04:20:20.088Z,23.07
2023-02-11T04:23:04.030Z,22.53
2023-02-11T04:25:47.997Z,26.70
2023-02-11T04:28:32.245Z,26.40
2023-02-11T04:31:17.594Z,29.43
2023-02-11T04:34:01.585Z,23.33
2023-02-11T04:36:45.448Z,31.03
2023-02-11T04:39:29.270Z,28.27
2023-02-11T04:42:13.037Z,29.77
2023-02-11T04:44:56.927Z,30.63
2023-02-11T04:47:42.556Z,33.87
2023-02-11T04:50:26.560Z,35.87
2023-02-11T04:53:10.370Z,35.77
2023-02-11T04:55:54.183Z,31.70
2023-02-11T04:58:38.115Z,34.13
2023-02-11T05:01:21.907Z,41.13
2023-02-11T05:04:07.442Z,37.47
2023-02-11T05:06:51.508Z,34.13
2023-02-11T05:09:35.355Z,40.47
2023-02-11T05:12:19.175Z,41.03
2023-02-11T05:15:03.030Z,34.13
2023-02-11T05:17:48.388Z,32.60
2023-02-11T05:20:33.596Z,34.03
2023-02-11T05:23:17.374Z,38.50
2023-02-11T05:26:01.184Z,119.97
2023-02-11T05:28:46.249Z,74.77
2023-02-11T05:31:30.211Z,56.57
2023-02-11T05:34:14.081Z,49.00
2023-02-11T05:36:59.382Z,53.03
2023-02-11T05:39:43.263Z,39.50
2023-02-11T05:42:26.987Z,38.37
2023-02-11T05:45:11.214Z,39.83
2023-02-11T05:47:54.911Z,52.73
2023-02-11T05:50:38.897Z,49.43
2023-02-11T05:53:24.017Z,45.17
2023-02-11T05:56:08.390Z,50.13
2023-02-11T05:58:52.365Z,50.30
2023-02-11T06:01:36.259Z,46.40
2023-02-11T06:04:20.246Z,43.13
2023-02-11T06:07:04.710Z,49.80
2023-02-11T06:09:49.959Z,46.90
2023-02-11T06:12:33.863Z,51.50
2023-02-11T06:15:17.830Z,43.33
2023-02-11T06:18:01.724Z,42.00
2023-02-11T06:20:45.418Z,46.27
2023-02-11T06:23:30.550Z,42.77
2023-02-11T06:26:20.422Z,48.03
2023-02-11T06:29:04.339Z,52.50
2023-02-11T06:31:48.243Z,52.57
2023-02-11T06:34:32.160Z,68.23
2023-02-11T06:37:16.067Z,57.40
2023-02-11T06:39:59.793Z,58.83
2023-02-11T06:42:44.960Z,70.37
2023-02-11T06:45:28.695Z,57.40
2023-02-11T06:48:12.762Z,47.40
2023-02-11T06:50:56.571Z,36.17
2023-02-11T06:53:42.580Z,31.13
2023-02-11T06:56:27.542Z,29.00
2023-02-11T06:59:16.630Z,30.90
2023-02-11T07:02:00.563Z,36.80
2023-02-11T07:04:44.575Z,40.60
2023-02-11T07:07:30.050Z,37.00
2023-02-11T07:10:15.112Z,32.23
2023-02-11T07:12:58.974Z,31.00
2023-02-11T07:15:44.356Z,45.83
2023-02-11T07:18:28.305Z,33.83
2023-02-11T07:21:14.840Z,33.97
2023-02-11T07:23:59.001Z,29.33
2023-02-11T07:26:42.982Z,37.73
2023-02-11T07:29:26.980Z,33.03
2023-02-11T07:32:12.457Z,31.00
2023-02-11T07:34:56.705Z,34.10
2023-02-11T07:37:41.692Z,38.00
2023-02-11T07:40:25.746Z,36.93
2023-02-11T07:43:09.719Z,37.27
2023-02-11T07:45:53.774Z,34.93
2023-02-11T07:48:40.074Z,26.93
2023-02-11T07:51:26.777Z,33.60
2023-02-11T07:54:12.885Z,36.00
2023-02-11T07:56:56.939Z,36.10
2023-02-11T07:59:41.037Z,39.73
2023-02-11T08:02:25.076Z,35.63
2023-02-11T08:05:11.168Z,41.57
2023-02-11T08:07:56.121Z,63.20
2023-02-11T08:10:40.348Z,33.07
2023-02-11T08:13:24.543Z,35.23
2023-02-11T08:16:13.261Z,34.63
2023-02-11T08:18:59.253Z,25.77
2023-02-11T08:21:46.076Z,19.30
2023-02-11T08:24:30.062Z,17.27
2023-02-11T08:27:14.091Z,15.20
2023-02-11T08:30:00.085Z,14.57
2023-02-11T08:32:44.516Z,16.83
2023-02-11T08:35:28.977Z,19.67
2023-02-11T08:38:14.362Z,16.87
2023-02-11T08:41:01.062Z,16.93
2023-02-11T08:43:47.523Z,16.23
2023-02-11T08:46:32.031Z,16.17
2023-02-11T08:49:16.374Z,19.30
2023-02-11T08:52:04.030Z,18.40
2023-02-11T08:54:49.583Z,14.03
2023-02-11T08:57:33.584Z,17.77
2023-02-11T09:00:18.814Z,19.00
2023-02-11T09:03:02.718Z,16.33
2023-02-11T09:05:49.826Z,21.17
2023-02-11T09:08:36.341Z,16.73
2023-02-11T09:11:23.700Z,18.83
2023-02-11T09:14:07.786Z,27.10
2023-02-11T09:16:52.180Z,21.50
2023-02-11T09:19:36.032Z,19.00
2023-02-11T09:22:20.000Z,52.87
2023-02-11T09:25:03.935Z,19.53
2023-02-11T09:27:49.927Z,16.80
2023-02-11T09:30:33.935Z,18.63
2023-02-11T09:33:17.798Z,21.77
2023-02-11T09:36:02.493Z,20.50
2023-02-11T09:38:47.242Z,19.47
2023-02-11T09:42:18.568Z,18.57
2023-02-11T09:45:06.023Z,19.80
2023-02-11T09:47:55.370Z,17.10
2023-02-11T09:50:43.749Z,21.00
2023-02-11T09:53:29.623Z,17.63
2023-02-11T09:56:15.413Z,16.80
2023-02-11T09:58:59.476Z,18.73
2023-02-11T10:01:50.018Z,29.50
2023-02-11T10:04:49.247Z,22.23
2023-02-11T10:07:38.661Z,17.93
2023-02-11T10:10:40.292Z,18.30
2023-02-11T10:13:37.120Z,19.83
2023-02-11T10:16:32.509Z,20.23
2023-02-11T10:19:30.721Z,17.27
2023-02-11T10:22:21.217Z,22.67
2023-02-11T10:25:19.107Z,21.20
2023-02-11T10:28:11.934Z,18.00
2023-02-11T10:31:01.052Z,21.20
2023-02-11T10:33:48.854Z,21.50
2023-02-11T10:36:36.404Z,19.80
2023-02-11T10:39:21.877Z,20.73
2023-02-11T10:42:09.899Z,17.97
2023-02-11T10:45:00.580Z,19.93
2023-02-11T10:47:45.134Z,21.60
2023-02-11T10:50:30.709Z,21.57
2023-02-11T10:53:21.098Z,30.70
2023-02-11T10:56:07.502Z,19.30
2023-02-11T10:58:59.636Z,22.37
2023-02-11T11:01:46.784Z,32.60
2023-02-11T11:04:41.639Z,41.77
2023-02-11T11:07:28.402Z,23.37
2023-02-11T11:10:30.574Z,19.93
2023-02-11T11:13:30.389Z,26.97
2023-02-11T11:16:20.912Z,20.70
2023-02-11T11:19:23.474Z,18.53
2023-02-11T11:22:07.241Z,20.00
2023-02-11T11:24:54.490Z,20.87
2023-02-11T11:27:39.742Z,18.80
2023-02-11T11:30:26.989Z,16.50
2023-02-11T11:33:22.330Z,19.63
2023-02-11T11:36:08.971Z,17.23
2023-02-11T11:38:55.875Z,22.23
2023-02-11T11:41:51.245Z,19.37
2023-02-11T11:44:38.038Z,17.47
2023-02-11T11:47:28.209Z,17.63
2023-02-11T11:50:36.299Z,20.53
2023-02-11T11:53:24.709Z,17.27
2023-02-11T11:56:15.417Z,19.53
2023-02-11T11:59:03.745Z,22.17
2023-02-11T12:02:03.241Z,18.73
2023-02-11T12:05:02.626Z,15.37
2023-02-11T12:08:02.136Z,17.87
2023-02-11T12:10:58.839Z,16.63
2023-02-11T12:13:54.625Z,18.63
2023-02-11T12:16:52.093Z,16.53
2023-02-11T12:20:01.015Z,21.77
2023-02-11T12:22:54.733Z,16.63
2023-02-11T12:25:46.024Z,16.30
2023-02-11T12:28:41.510Z,13.13
2023-02-11T12:31:38.207Z,14.43
2023-02-11T12:34:47.049Z,15.80
2023-02-11T12:37:44.573Z,17.23
2023-02-11T12:40:35.172Z,15.53
2023-02-11T12:43:23.776Z,13.77
2023-02-11T12:46:36.200Z,14.57
2023-02-11T12:49:42.968Z,13.93
2023-02-11T12:52:51.657Z,15.37
2023-02-11T12:55:38.296Z,16.20
2023-02-11T12:58:35.536Z,11.53
2023-02-11T13:01:30.767Z,11.63
2023-02-11T13:04:22.300Z,12.80
2023-02-11T13:07:14.352Z,12.87
2023-02-11T13:10:07.707Z,13.60
2023-02-11T13:13:11.528Z,11.73
2023-02-11T13:16:02.366Z,12.23
2023-02-11T13:18:57.296Z,11.40
2023-02-11T13:22:10.744Z,12.30
2023-02-11T13:25:01.107Z,12.43
2023-02-11T13:27:58.411Z,10.97
2023-02-11T13:30:47.526Z,10.27
2023-02-11T13:33:39.651Z,13.93
2023-02-11T13:36:25.734Z,13.73
2023-02-11T13:39:21.910Z,15.00
2023-02-11T13:42:07.381Z,14.00
2023-02-11T13:44:51.675Z,14.73
2023-02-11T13:47:38.045Z,14.47
2023-02-11T13:50:25.258Z,12.90
2023-02-11T13:53:09.918Z,13.00
2023-02-11T13:56:06.244Z,12.60
2023-02-11T13:58:52.726Z,13.07
2023-02-11T14:02:20.693Z,11.43
2023-02-11T14:05:38.433Z,13.93
2023-02-11T14:08:42.043Z,14.93
2023-02-11T14:11:50.352Z,13.53
2023-02-11T14:14:36.187Z,10.43
2023-02-11T14:17:21.370Z,10.33
2023-02-11T14:20:26.449Z,15.10
2023-02-11T14:23:24.144Z,15.17
2023-02-11T14:26:31.176Z,15.00
2023-02-11T14:29:21.073Z,13.63
2023-02-11T14:32:14.358Z,14.33
2023-02-11T14:35:09.267Z,12.87
2023-02-11T14:38:03.118Z,14.73
2023-02-11T14:40:55.194Z,12.90
2023-02-11T14:43:42.493Z,14.10
2023-02-11T14:46:30.024Z,14.10
2023-02-11T14:49:25.447Z,14.60
2023-02-11T14:52:28.886Z,13.13
2023-02-11T14:55:25.382Z,11.07
2023-02-11T14:58:15.679Z,12.93
2023-02-11T15:01:01.483Z,11.50
2023-02-11T15:03:50.629Z,13.97
2023-02-11T15:06:39.285Z,16.37
2023-02-11T15:09:28.211Z,17.93
2023-02-11T15:12:20.403Z,14.60
2023-02-11T15:15:04.865Z,26.03
2023-02-11T15:17:49.619Z,16.77
2023-02-11T15:20:36.103Z,11.73
2023-02-11T15:23:25.696Z,12.20
2023-02-11T15:26:15.474Z,14.07
2023-02-11T15:28:59.870Z,14.03
2023-02-11T15:31:44.008Z,16.87
2023-02-11T15:34:28.408Z,14.10
2023-02-11T15:37:16.310Z,14.67
2023-02-11T15:40:12.396Z,33.93
2023-02-11T15:42:58.989Z,66.63
2023-02-11T15:45:45.408Z,103.60
2023-02-11T15:48:36.702Z,100.00
2023-02-11T15:51:23.239Z,83.63
2023-02-11T15:54:16.569Z,82.47
2023-02-11T15:57:08.686Z,42.17
2023-02-11T15:59:55.444Z,50.23
2023-02-11T16:02:45.275Z,54.77
2023-02-11T16:05:32.840Z,68.33
2023-02-11T16:08:24.573Z,50.73
2023-02-11T16:11:09.721Z,43.77
2023-02-11T16:13:55.118Z,46.57
2023-02-11T16:16:39.166Z,44.13
2023-02-11T16:19:25.718Z,25.73
2023-02-11T16:22:12.157Z,21.23
2023-02-11T16:24:59.606Z,19.77
2023-02-11T16:27:44.332Z,23.73
2023-02-11T16:30:37.629Z,19.83
2023-02-11T16:33:21.859Z,21.50
2023-02-11T16:36:13.620Z,22.07
2023-02-11T16:38:57.499Z,22.00
2023-02-11T16:41:41.842Z,18.93
2023-02-11T16:44:25.935Z,24.10
2023-02-11T16:47:20.679Z,20.87
2023-02-11T16:50:04.592Z,19.97
2023-02-11T16:52:48.457Z,21.13
2023-02-11T16:55:32.590Z,19.63
2023-02-11T16:58:16.988Z,18.53
2023-02-11T17:01:01.057Z,23.20
2023-02-11T17:03:46.494Z,26.00
2023-02-11T17:06:30.488Z,28.77
2023-02-11T17:09:19.142Z,38.30
2023-02-11T17:12:03.182Z,23.23
2023-02-11T17:14:47.163Z,23.37
2023-02-11T17:17:30.998Z,19.97
2023-02-11T17:20:17.463Z,33.87
2023-02-11T17:23:01.267Z,20.53
2023-02-11T17:25:45.225Z,23.70
2023-02-11T17:28:29.112Z,30.07
2023-02-11T17:31:13.097Z,29.70
2023-02-11T17:33:57.390Z,21.00
2023-02-11T17:36:42.595Z,21.27
2023-02-11T17:39:26.493Z,17.17
2023-02-11T17:42:11.742Z,18.27
2023-02-11T17:44:55.688Z,22.53
2023-02-11T17:47:39.730Z,23.77
2023-02-11T17:50:23.801Z,19.93
2023-02-11T17:53:09.230Z,17.33
2023-02-11T17:55:53.363Z,16.73
2023-02-11T17:58:37.420Z,18.57
2023-02-11T18:01:21.629Z,20.60
2023-02-11T18:04:06.606Z,18.53
2023-02-11T18:06:53.630Z,26.17
2023-02-11T18:09:42.846Z,33.90
2023-02-11T18:12:26.847Z,28.00
2023-02-11T18:15:11.450Z,30.30
2023-02-11T18:17:56.284Z,29.43
2023-02-11T18:20:42.893Z,30.37
2023-02-11T18:23:27.105Z,31.37
2023-02-11T18:26:14.630Z,30.30
2023-02-11T18:29:00.717Z,38.10
2023-02-11T18:31:44.776Z,27.33
2023-02-11T18:34:28.879Z,23.63
2023-02-11T18:37:14.154Z,23.87
2023-02-11T18:39:58.196Z,27.13
2023-02-11T18:42:44.126Z,28.90
2023-02-11T18:45:29.274Z,33.93
2023-02-11T18:48:13.859Z,48.23
2023-02-11T18:50:57.923Z,32.90
2023-02-11T18:53:42.314Z,30.43
2023-02-11T18:56:27.908Z,32.27
2023-02-11T18:59:13.810Z,30.97
2023-02-11T19:01:58.142Z,44.27
2023-02-11T19:04:42.185Z,21.53
2023-02-11T19:07:26.399Z,20.10
2023-02-11T19:10:10.652Z,36.53
2023-02-11T19:12:56.411Z,46.47
2023-02-11T19:15:44.585Z,53.30
2023-02-11T19:18:28.608Z,44.43
2023-02-11T19:21:14.110Z,62.10
2023-02-11T19:23:58.512Z,44.97
2023-02-11T19:26:43.526Z,50.00
2023-02-11T19:29:28.234Z,63.17
2023-02-11T19:32:13.573Z,42.27
2023-02-11T19:34:57.638Z,47.50
2023-02-11T19:37:41.646Z,29.03
2023-02-11T19:40:25.707Z,24.50
2023-02-11T19:43:09.742Z,71.17
2023-02-11T19:45:56.402Z,60.50
2023-02-11T19:48:42.028Z,49.37
2023-02-11T19:51:26.193Z,28.90
2023-02-11T19:54:10.227Z,32.00
2023-02-11T19:56:54.440Z,51.83
2023-02-11T19:59:38.394Z,36.20
2023-02-11T20:02:22.643Z,20.63
2023-02-11T20:05:08.670Z,20.57
2023-02-11T20:07:52.811Z,17.47
2023-02-11T20:10:36.810Z,29.67
2023-02-11T20:13:20.857Z,25.60
2023-02-11T20:16:09.023Z,26.47
2023-02-11T20:18:53.716Z,30.83
2023-02-11T20:21:39.698Z,27.80
2023-02-11T20:24:24.520Z,35.63
2023-02-11T20:27:10.563Z,24.37
2023-02-11T20:29:54.617Z,19.23
2023-02-11T20:32:39.119Z,21.77
2023-02-11T20:35:23.098Z,25.03
2023-02-11T20:38:08.688Z,25.73
2023-02-11T20:40:53.140Z,26.80
2023-02-11T20:43:38.027Z,26.00
2023-02-11T20:46:24.341Z,31.13
2023-02-11T20:49:08.874Z,38.97
2023-02-11T20:51:54.084Z,26.87
2023-02-11T20:54:39.874Z,21.03
2023-02-11T20:57:23.912Z,28.33
2023-02-11T21:00:09.822Z,36.77
2023-02-11T21:02:54.121Z,31.63
2023-02-11T21:05:38.122Z,31.47
2023-02-11T21:08:22.234Z,29.00
2023-02-11T21:11:09.011Z,26.17
2023-02-11T21:13:53.293Z,30.50
2023-02-11T21:16:37.423Z,35.57
2023-02-11T21:19:22.012Z,36.23
2023-02-11T21:22:06.087Z,33.47
2023-02-11T21:24:50.335Z,42.40
2023-02-11T21:27:35.812Z,34.63
2023-02-11T21:30:19.958Z,30.47
2023-02-11T21:33:03.882Z,33.37
2023-02-11T21:35:47.959Z,23.17
2023-02-11T21:38:32.915Z,27.47
2023-02-11T21:41:17.075Z,27.67
2023-02-11T21:44:02.509Z,33.00
2023-02-11T21:46:47.114Z,22.27
2023-02-11T21:49:31.034Z,21.80
2023-02-11T21:52:14.969Z,25.47
2023-02-11T21:54:59.081Z,22.13
2023-02-11T21:57:43.089Z,18.17
2023-02-11T22:00:29.105Z,24.87
2023-02-11T22:03:14.116Z,25.73
2023-02-11T22:05:58.060Z,18.43
2023-02-11T22:08:42.751Z,21.27
2023-02-11T22:11:26.582Z,17.43
2023-02-11T22:14:10.407Z,22.17
2023-02-11T22:16:55.623Z,22.87
2023-02-11T22:19:39.518Z,20.17
2023-02-11T22:22:23.281Z,20.47
2023-02-11T22:25:07.794Z,21.33
2023-02-11T22:27:51.491Z,22.07
2023-02-11T22:30:35.340Z,26.13
2023-02-11T22:33:20.583Z,44.37
2023-02-11T22:36:07.638Z,58.33
2023-02-11T22:38:52.092Z,24.33
2023-02-11T22:41:38.288Z,20.80
2023-02-11T22:44:22.085Z,19.60
2023-02-11T22:47:06.003Z,17.37
2023-02-11T22:49:51.154Z,28.70
2023-02-11T22:52:36.531Z,28.30
2023-02-11T22:55:20.375Z,18.50
2023-02-11T22:58:04.333Z,27.97
2023-02-11T23:00:48.038Z,21.33
2023-02-11T23:03:32.639Z,21.20
2023-02-11T23:06:18.597Z,21.67
2023-02-11T23:09:04.191Z,19.13
2023-02-11T23:11:49.443Z,23.40
2023-02-11T23:14:33.208Z,22.77
2023-02-11T23:17:16.932Z,23.07
2023-02-11T23:20:00.686Z,20.13
2023-02-11T23:22:45.830Z,20.57
2023-02-11T23:25:29.802Z,15.10
2023-02-11T23:28:13.976Z,18.20
2023-02-11T23:30:57.906Z,17.77
2023-02-11T23:33:41.753Z,24.17
2023-02-11T23:36:25.688Z,18.40
2023-02-11T23:39:14.508Z,13.30
2023-02-11T23:41:59.627Z,13.30
2023-02-11T23:44:43.622Z,17.17
2023-02-11T23:47:27.408Z,14.77
2023-02-11T23:50:12.582Z,13.63
2023-02-11T23:52:56.416Z,18.43
2023-02-11T23:55:42.859Z,12.23
2023-02-11T23:58:26.695Z,13.27
